sensor_id;sensor_type;location;lat;lon;timestamp;temperature;humidity
15455;DHT22;21057;51.024;7.540;2024-02-26T00:01:48;7.90;99.90
15455;DHT22;21057;51.024;7.540;2024-02-26T00:04:16;7.90;99.90
15455;DHT22;21057;51.024;7.540;2024-02-26T00:06:43;7.70;99.90
15455;DHT22;21057;51.024;7.540;2024-02-26T00:09:10;7.80;99.90
15455;DHT22;21057;51.024;7.540;2024-02-26T00:11:37;7.80;99.90
15455;DHT22;21057;51.024;7.540;2024-02-26T00:14:04;8.00;99.90
15455;DHT22;21057;51.024;7.540;2024-02-26T00:16:31;7.80;99.90
15455;DHT22;21057;51.024;7.540;2024-02-26T00:18:58;8.00;99.90
15455;DHT22;21057;51.024;7.540;2024-02-26T00:21:26;8.00;99.90
15455;DHT22;21057;51.024;7.540;2024-02-26T00:23:53;8.10;99.90
15455;DHT22;21057;51.024;7.540;2024-02-26T00:26:20;8.10;99.90
15455;DHT22;21057;51.024;7.540;2024-02-26T00:28:46;8.00;99.90
15455;DHT22;21057;51.024;7.540;2024-02-26T00:31:13;8.00;99.90
15455;DHT22;21057;51.024;7.540;2024-02-26T00:33:40;7.80;99.90
15455;DHT22;21057;51.024;7.540;2024-02-26T00:36:07;7.90;99.90
15455;DHT22;21057;51.024;7.540;2024-02-26T00:38:35;7.80;99.90
15455;DHT22;21057;51.024;7.540;2024-02-26T00:41:02;7.70;99.90
15455;DHT22;21057;51.024;7.540;2024-02-26T00:43:29;7.70;99.90
15455;DHT22;21057;51.024;7.540;2024-02-26T00:45:56;7.80;99.90
15455;DHT22;21057;51.024;7.540;2024-02-26T00:48:23;7.80;99.90
15455;DHT22;21057;51.024;7.540;2024-02-26T00:50:51;7.90;99.90
15455;DHT22;21057;51.024;7.540;2024-02-26T00:53:18;7.90;99.90
15455;DHT22;21057;51.024;7.540;2024-02-26T00:55:46;7.70;99.90
15455;DHT22;21057;51.024;7.540;2024-02-26T00:58:13;7.80;99.90
15455;DHT22;21057;51.024;7.540;2024-02-26T01:00:39;7.70;99.90
15455;DHT22;21057;51.024;7.540;2024-02-26T01:03:06;7.70;99.90
15455;DHT22;21057;51.024;7.540;2024-02-26T01:05:33;7.80;99.90
15455;DHT22;21057;51.024;7.540;2024-02-26T01:08:00;7.90;99.90
15455;DHT22;21057;51.024;7.540;2024-02-26T01:10:26;8.00;99.90
15455;DHT22;21057;51.024;7.540;2024-02-26T01:12:55;7.90;99.90
15455;DHT22;21057;51.024;7.540;2024-02-26T01:15:21;8.00;99.90
15455;DHT22;21057;51.024;7.540;2024-02-26T01:17:49;7.80;99.90
15455;DHT22;21057;51.024;7.540;2024-02-26T01:20:16;8.00;99.90
15455;DHT22;21057;51.024;7.540;2024-02-26T01:22:43;7.80;99.90
15455;DHT22;21057;51.024;7.540;2024-02-26T01:25:10;7.80;99.90
15455;DHT22;21057;51.024;7.540;2024-02-26T01:27:37;7.90;99.90
15455;DHT22;21057;51.024;7.540;2024-02-26T01:30:09;7.90;99.90
15455;DHT22;21057;51.024;7.540;2024-02-26T01:32:35;7.90;99.90
15455;DHT22;21057;51.024;7.540;2024-02-26T01:35:02;8.00;99.90
15455;DHT22;21057;51.024;7.540;2024-02-26T01:37:30;7.80;99.90
15455;DHT22;21057;51.024;7.540;2024-02-26T01:39:57;7.80;99.90
15455;DHT22;21057;51.024;7.540;2024-02-26T01:42:24;7.90;99.90
15455;DHT22;21057;51.024;7.540;2024-02-26T01:44:51;7.90;99.90
15455;DHT22;21057;51.024;7.540;2024-02-26T01:47:19;7.90;99.90
15455;DHT22;21057;51.024;7.540;2024-02-26T01:49:46;7.90;99.90
15455;DHT22;21057;51.024;7.540;2024-02-26T01:52:13;7.80;99.90
15455;DHT22;21057;51.024;7.540;2024-02-26T01:54:40;7.90;99.90
15455;DHT22;21057;51.024;7.540;2024-02-26T01:57:09;8.00;99.90
15455;DHT22;21057;51.024;7.540;2024-02-26T01:59:36;8.00;99.90
15455;DHT22;21057;51.024;7.540;2024-02-26T02:02:06;7.90;99.90
15455;DHT22;21057;51.024;7.540;2024-02-26T02:04:36;7.90;99.90
15455;DHT22;21057;51.024;7.540;2024-02-26T02:07:04;7.80;99.90
15455;DHT22;21057;51.024;7.540;2024-02-26T02:09:31;7.80;99.90
15455;DHT22;21057;51.024;7.540;2024-02-26T02:11:59;7.70;99.90
15455;DHT22;21057;51.024;7.540;2024-02-26T02:14:26;7.70;99.90
15455;DHT22;21057;51.024;7.540;2024-02-26T02:16:53;7.80;99.90
15455;DHT22;21057;51.024;7.540;2024-02-26T02:19:20;7.50;99.90
15455;DHT22;21057;51.024;7.540;2024-02-26T02:21:48;7.50;99.90
15455;DHT22;21057;51.024;7.540;2024-02-26T02:24:15;7.50;99.90
15455;DHT22;21057;51.024;7.540;2024-02-26T02:26:42;7.40;99.90
15455;DHT22;21057;51.024;7.540;2024-02-26T02:29:09;7.30;99.90
15455;DHT22;21057;51.024;7.540;2024-02-26T02:31:36;7.40;99.90
15455;DHT22;21057;51.024;7.540;2024-02-26T02:34:03;7.40;99.90
15455;DHT22;21057;51.024;7.540;2024-02-26T02:36:30;7.50;99.90
15455;DHT22;21057;51.024;7.540;2024-02-26T02:38:58;7.40;99.90
15455;DHT22;21057;51.024;7.540;2024-02-26T02:41:25;7.30;99.90
15455;DHT22;21057;51.024;7.540;2024-02-26T02:43:55;7.20;99.90
15455;DHT22;21057;51.024;7.540;2024-02-26T02:46:22;7.30;99.90
15455;DHT22;21057;51.024;7.540;2024-02-26T02:48:48;7.40;99.90
15455;DHT22;21057;51.024;7.540;2024-02-26T02:51:15;7.40;99.90
15455;DHT22;21057;51.024;7.540;2024-02-26T02:53:42;7.40;99.90
15455;DHT22;21057;51.024;7.540;2024-02-26T02:56:10;7.30;99.90
15455;DHT22;21057;51.024;7.540;2024-02-26T02:58:38;7.40;99.90
15455;DHT22;21057;51.024;7.540;2024-02-26T03:01:04;7.30;99.90
15455;DHT22;21057;51.024;7.540;2024-02-26T03:03:31;7.30;99.90
15455;DHT22;21057;51.024;7.540;2024-02-26T03:05:58;7.30;99.90
15455;DHT22;21057;51.024;7.540;2024-02-26T03:08:25;7.20;99.90
15455;DHT22;21057;51.024;7.540;2024-02-26T03:10:52;7.20;99.90
15455;DHT22;21057;51.024;7.540;2024-02-26T03:13:20;7.20;99.90
15455;DHT22;21057;51.024;7.540;2024-02-26T03:15:47;7.30;99.90
15455;DHT22;21057;51.024;7.540;2024-02-26T03:18:14;7.30;99.90
15455;DHT22;21057;51.024;7.540;2024-02-26T03:20:41;7.30;99.90
15455;DHT22;21057;51.024;7.540;2024-02-26T03:23:07;7.40;99.90
15455;DHT22;21057;51.024;7.540;2024-02-26T03:25:38;7.50;99.90
15455;DHT22;21057;51.024;7.540;2024-02-26T03:28:05;7.30;99.90
15455;DHT22;21057;51.024;7.540;2024-02-26T03:30:33;7.30;99.90
15455;DHT22;21057;51.024;7.540;2024-02-26T03:33:01;7.30;99.90
15455;DHT22;21057;51.024;7.540;2024-02-26T03:35:28;7.30;99.90
15455;DHT22;21057;51.024;7.540;2024-02-26T03:37:54;7.40;99.90
15455;DHT22;21057;51.024;7.540;2024-02-26T03:40:21;7.50;99.90
15455;DHT22;21057;51.024;7.540;2024-02-26T03:42:48;7.50;99.90
15455;DHT22;21057;51.024;7.540;2024-02-26T03:45:15;7.50;99.90
15455;DHT22;21057;51.024;7.540;2024-02-26T03:47:43;7.40;99.90
15455;DHT22;21057;51.024;7.540;2024-02-26T03:50:10;7.30;99.90
15455;DHT22;21057;51.024;7.540;2024-02-26T03:52:37;7.40;99.90
15455;DHT22;21057;51.024;7.540;2024-02-26T03:55:04;7.50;99.90
15455;DHT22;21057;51.024;7.540;2024-02-26T03:57:31;7.30;99.90
15455;DHT22;21057;51.024;7.540;2024-02-26T03:59:58;7.30;99.90
15455;DHT22;21057;51.024;7.540;2024-02-26T04:02:24;7.30;99.90
15455;DHT22;21057;51.024;7.540;2024-02-26T04:04:53;7.30;99.90
15455;DHT22;21057;51.024;7.540;2024-02-26T04:07:20;7.30;99.90
15455;DHT22;21057;51.024;7.540;2024-02-26T04:09:47;7.30;99.90
15455;DHT22;21057;51.024;7.540;2024-02-26T04:12:14;7.40;99.90
15455;DHT22;21057;51.024;7.540;2024-02-26T04:14:40;7.50;99.90
15455;DHT22;21057;51.024;7.540;2024-02-26T04:17:07;7.50;99.90
15455;DHT22;21057;51.024;7.540;2024-02-26T04:19:34;7.30;99.90
15455;DHT22;21057;51.024;7.540;2024-02-26T04:22:04;7.30;99.90
15455;DHT22;21057;51.024;7.540;2024-02-26T04:24:31;7.30;99.90
15455;DHT22;21057;51.024;7.540;2024-02-26T04:26:58;7.20;99.90
15455;DHT22;21057;51.024;7.540;2024-02-26T04:29:25;7.30;99.90
15455;DHT22;21057;51.024;7.540;2024-02-26T04:31:51;7.20;99.90
15455;DHT22;21057;51.024;7.540;2024-02-26T04:34:18;7.20;99.90
15455;DHT22;21057;51.024;7.540;2024-02-26T04:36:45;7.30;99.90
15455;DHT22;21057;51.024;7.540;2024-02-26T04:39:14;7.40;99.90
15455;DHT22;21057;51.024;7.540;2024-02-26T04:41:41;7.40;99.90
15455;DHT22;21057;51.024;7.540;2024-02-26T04:44:08;7.20;99.90
15455;DHT22;21057;51.024;7.540;2024-02-26T04:46:35;7.20;99.90
15455;DHT22;21057;51.024;7.540;2024-02-26T04:49:02;7.20;99.90
15455;DHT22;21057;51.024;7.540;2024-02-26T04:51:29;7.20;99.90
15455;DHT22;21057;51.024;7.540;2024-02-26T04:53:55;7.30;99.90
15455;DHT22;21057;51.024;7.540;2024-02-26T04:56:25;7.30;99.90
15455;DHT22;21057;51.024;7.540;2024-02-26T04:58:52;7.30;99.90
15455;DHT22;21057;51.024;7.540;2024-02-26T05:01:19;7.40;99.90
15455;DHT22;21057;51.024;7.540;2024-02-26T05:03:45;7.40;99.90
15455;DHT22;21057;51.024;7.540;2024-02-26T05:06:12;7.50;99.90
15455;DHT22;21057;51.024;7.540;2024-02-26T05:08:39;7.40;99.90
15455;DHT22;21057;51.024;7.540;2024-02-26T05:11:06;7.40;99.90
15455;DHT22;21057;51.024;7.540;2024-02-26T05:13:34;7.40;99.90
15455;DHT22;21057;51.024;7.540;2024-02-26T05:16:01;7.40;99.90
15455;DHT22;21057;51.024;7.540;2024-02-26T05:18:28;7.50;99.90
15455;DHT22;21057;51.024;7.540;2024-02-26T05:20:55;7.50;99.90
15455;DHT22;21057;51.024;7.540;2024-02-26T05:23:22;7.60;99.90
15455;DHT22;21057;51.024;7.540;2024-02-26T05:25:49;7.40;99.90
15455;DHT22;21057;51.024;7.540;2024-02-26T05:28:15;7.40;99.90
15455;DHT22;21057;51.024;7.540;2024-02-26T05:30:45;7.40;99.90
15455;DHT22;21057;51.024;7.540;2024-02-26T05:33:12;7.40;99.90
15455;DHT22;21057;51.024;7.540;2024-02-26T05:35:39;7.50;99.90
15455;DHT22;21057;51.024;7.540;2024-02-26T05:38:06;7.50;99.90
15455;DHT22;21057;51.024;7.540;2024-02-26T05:40:33;7.30;99.90
15455;DHT22;21057;51.024;7.540;2024-02-26T05:42:59;7.30;99.90
15455;DHT22;21057;51.024;7.540;2024-02-26T05:45:26;7.30;99.90
15455;DHT22;21057;51.024;7.540;2024-02-26T05:47:54;7.30;99.90
15455;DHT22;21057;51.024;7.540;2024-02-26T05:50:21;7.30;99.90
15455;DHT22;21057;51.024;7.540;2024-02-26T05:52:48;7.40;99.90
15455;DHT22;21057;51.024;7.540;2024-02-26T05:55:15;7.40;99.90
15455;DHT22;21057;51.024;7.540;2024-02-26T05:57:41;7.40;99.90
15455;DHT22;21057;51.024;7.540;2024-02-26T06:00:08;7.30;99.90
15455;DHT22;21057;51.024;7.540;2024-02-26T06:02:35;7.40;99.90
15455;DHT22;21057;51.024;7.540;2024-02-26T06:05:04;7.40;99.90
15455;DHT22;21057;51.024;7.540;2024-02-26T06:07:32;7.40;99.90
15455;DHT22;21057;51.024;7.540;2024-02-26T06:10:00;7.20;99.90
15455;DHT22;21057;51.024;7.540;2024-02-26T06:12:27;7.20;99.90
15455;DHT22;21057;51.024;7.540;2024-02-26T06:14:56;7.20;99.90
15455;DHT22;21057;51.024;7.540;2024-02-26T06:17:23;7.20;99.90
15455;DHT22;21057;51.024;7.540;2024-02-26T06:19:50;7.10;99.90
15455;DHT22;21057;51.024;7.540;2024-02-26T06:22:18;7.00;99.90
15455;DHT22;21057;51.024;7.540;2024-02-26T06:24:45;7.00;99.90
15455;DHT22;21057;51.024;7.540;2024-02-26T06:27:12;7.00;99.90
15455;DHT22;21057;51.024;7.540;2024-02-26T06:29:39;7.00;99.90
15455;DHT22;21057;51.024;7.540;2024-02-26T06:32:06;6.90;99.90
15455;DHT22;21057;51.024;7.540;2024-02-26T06:34:33;7.00;99.90
15455;DHT22;21057;51.024;7.540;2024-02-26T06:36:59;7.00;99.90
15455;DHT22;21057;51.024;7.540;2024-02-26T06:39:28;7.00;99.90
15455;DHT22;21057;51.024;7.540;2024-02-26T06:41:54;7.00;99.90
15455;DHT22;21057;51.024;7.540;2024-02-26T06:44:26;6.90;99.90
15455;DHT22;21057;51.024;7.540;2024-02-26T06:46:57;6.90;99.90
15455;DHT22;21057;51.024;7.540;2024-02-26T06:49:24;6.90;99.90
15455;DHT22;21057;51.024;7.540;2024-02-26T06:51:51;6.90;99.90
15455;DHT22;21057;51.024;7.540;2024-02-26T06:54:18;6.90;99.90
15455;DHT22;21057;51.024;7.540;2024-02-26T06:56:46;7.00;99.90
15455;DHT22;21057;51.024;7.540;2024-02-26T06:59:13;7.00;99.90
15455;DHT22;21057;51.024;7.540;2024-02-26T07:01:41;7.10;99.90
15455;DHT22;21057;51.024;7.540;2024-02-26T07:04:07;6.90;99.90
15455;DHT22;21057;51.024;7.540;2024-02-26T07:06:36;7.00;99.90
15455;DHT22;21057;51.024;7.540;2024-02-26T07:09:03;7.00;99.90
15455;DHT22;21057;51.024;7.540;2024-02-26T07:11:30;6.90;99.90
15455;DHT22;21057;51.024;7.540;2024-02-26T07:13:58;6.90;99.90
15455;DHT22;21057;51.024;7.540;2024-02-26T07:16:26;6.90;99.90
15455;DHT22;21057;51.024;7.540;2024-02-26T07:18:53;6.80;99.90
15455;DHT22;21057;51.024;7.540;2024-02-26T07:21:20;6.90;99.90
15455;DHT22;21057;51.024;7.540;2024-02-26T07:23:47;6.90;99.90
15455;DHT22;21057;51.024;7.540;2024-02-26T07:26:14;7.00;99.90
15455;DHT22;21057;51.024;7.540;2024-02-26T07:28:42;6.90;99.90
15455;DHT22;21057;51.024;7.540;2024-02-26T07:31:11;6.90;99.90
15455;DHT22;21057;51.024;7.540;2024-02-26T07:33:37;6.90;99.90
15455;DHT22;21057;51.024;7.540;2024-02-26T07:36:05;7.00;99.90
15455;DHT22;21057;51.024;7.540;2024-02-26T07:38:31;7.10;99.90
15455;DHT22;21057;51.024;7.540;2024-02-26T07:40:58;7.20;99.90
15455;DHT22;21057;51.024;7.540;2024-02-26T07:43:25;7.10;99.90
15455;DHT22;21057;51.024;7.540;2024-02-26T07:45:52;7.10;99.90
15455;DHT22;21057;51.024;7.540;2024-02-26T07:48:20;7.00;99.90
15455;DHT22;21057;51.024;7.540;2024-02-26T07:50:47;7.20;99.90
15455;DHT22;21057;51.024;7.540;2024-02-26T07:53:14;7.10;99.90
15455;DHT22;21057;51.024;7.540;2024-02-26T07:55:41;7.10;99.90
15455;DHT22;21057;51.024;7.540;2024-02-26T07:58:07;7.10;99.90
15455;DHT22;21057;51.024;7.540;2024-02-26T08:00:34;7.20;99.90
15455;DHT22;21057;51.024;7.540;2024-02-26T08:03:01;7.20;99.90
15455;DHT22;21057;51.024;7.540;2024-02-26T08:05:30;7.30;99.90
15455;DHT22;21057;51.024;7.540;2024-02-26T08:07:56;7.30;99.90
15455;DHT22;21057;51.024;7.540;2024-02-26T08:10:23;7.20;99.90
15455;DHT22;21057;51.024;7.540;2024-02-26T08:12:50;7.30;99.90
15455;DHT22;21057;51.024;7.540;2024-02-26T08:15:17;7.20;99.90
15455;DHT22;21057;51.024;7.540;2024-02-26T08:17:44;7.30;99.90
15455;DHT22;21057;51.024;7.540;2024-02-26T08:20:13;7.30;99.90
15455;DHT22;21057;51.024;7.540;2024-02-26T08:22:41;7.10;99.90
15455;DHT22;21057;51.024;7.540;2024-02-26T08:25:08;7.20;99.90
15455;DHT22;21057;51.024;7.540;2024-02-26T08:27:36;7.20;99.90
15455;DHT22;21057;51.024;7.540;2024-02-26T08:30:03;7.30;99.90
15455;DHT22;21057;51.024;7.540;2024-02-26T08:32:30;7.20;99.90
15455;DHT22;21057;51.024;7.540;2024-02-26T08:34:57;7.30;99.90
15455;DHT22;21057;51.024;7.540;2024-02-26T08:37:24;7.30;99.90
15455;DHT22;21057;51.024;7.540;2024-02-26T08:39:52;7.40;99.90
15455;DHT22;21057;51.024;7.540;2024-02-26T08:42:19;7.30;99.90
15455;DHT22;21057;51.024;7.540;2024-02-26T08:44:46;7.40;99.90
15455;DHT22;21057;51.024;7.540;2024-02-26T08:47:13;7.30;99.90
15455;DHT22;21057;51.024;7.540;2024-02-26T08:49:42;7.30;99.90
15455;DHT22;21057;51.024;7.540;2024-02-26T08:52:09;7.40;99.90
15455;DHT22;21057;51.024;7.540;2024-02-26T08:54:36;7.30;99.90
15455;DHT22;21057;51.024;7.540;2024-02-26T08:57:04;7.10;99.90
15455;DHT22;21057;51.024;7.540;2024-02-26T08:59:31;7.10;99.90
15455;DHT22;21057;51.024;7.540;2024-02-26T09:01:58;7.20;99.90
15455;DHT22;21057;51.024;7.540;2024-02-26T09:04:25;7.40;99.90
15455;DHT22;21057;51.024;7.540;2024-02-26T09:06:52;7.40;99.90
15455;DHT22;21057;51.024;7.540;2024-02-26T09:09:19;7.20;99.90
15455;DHT22;21057;51.024;7.540;2024-02-26T09:11:47;7.30;99.90
15455;DHT22;21057;51.024;7.540;2024-02-26T09:14:18;7.40;99.90
15455;DHT22;21057;51.024;7.540;2024-02-26T09:16:45;7.40;99.90
15455;DHT22;21057;51.024;7.540;2024-02-26T09:19:13;7.50;99.90
15455;DHT22;21057;51.024;7.540;2024-02-26T09:21:42;7.60;99.90
15455;DHT22;21057;51.024;7.540;2024-02-26T09:24:09;7.50;99.90
15455;DHT22;21057;51.024;7.540;2024-02-26T09:26:36;7.50;99.90
15455;DHT22;21057;51.024;7.540;2024-02-26T09:29:03;7.40;99.90
15455;DHT22;21057;51.024;7.540;2024-02-26T09:31:32;7.30;99.90
15455;DHT22;21057;51.024;7.540;2024-02-26T09:33:59;7.20;99.90
15455;DHT22;21057;51.024;7.540;2024-02-26T09:36:26;7.20;99.90
15455;DHT22;21057;51.024;7.540;2024-02-26T09:38:53;7.30;99.90
15455;DHT22;21057;51.024;7.540;2024-02-26T09:41:20;7.40;99.90
15455;DHT22;21057;51.024;7.540;2024-02-26T09:43:48;7.50;99.90
15455;DHT22;21057;51.024;7.540;2024-02-26T09:46:18;7.40;99.90
15455;DHT22;21057;51.024;7.540;2024-02-26T09:48:47;7.40;99.90
15455;DHT22;21057;51.024;7.540;2024-02-26T09:51:15;7.60;99.90
15455;DHT22;21057;51.024;7.540;2024-02-26T09:53:43;7.70;99.90
15455;DHT22;21057;51.024;7.540;2024-02-26T09:56:11;7.50;99.90
15455;DHT22;21057;51.024;7.540;2024-02-26T09:58:39;7.40;99.90
15455;DHT22;21057;51.024;7.540;2024-02-26T10:01:11;7.50;99.90
15455;DHT22;21057;51.024;7.540;2024-02-26T10:03:41;7.30;99.90
15455;DHT22;21057;51.024;7.540;2024-02-26T10:06:11;7.30;99.90
15455;DHT22;21057;51.024;7.540;2024-02-26T10:08:38;7.50;99.90
15455;DHT22;21057;51.024;7.540;2024-02-26T10:11:05;7.50;99.90
15455;DHT22;21057;51.024;7.540;2024-02-26T10:13:34;7.50;99.90
15455;DHT22;21057;51.024;7.540;2024-02-26T10:16:01;7.40;99.90
15455;DHT22;21057;51.024;7.540;2024-02-26T10:18:45;7.50;99.90
15455;DHT22;21057;51.024;7.540;2024-02-26T10:21:13;7.60;99.90
15455;DHT22;21057;51.024;7.540;2024-02-26T10:23:42;7.60;99.90
15455;DHT22;21057;51.024;7.540;2024-02-26T10:26:10;7.70;99.90
15455;DHT22;21057;51.024;7.540;2024-02-26T10:28:37;7.60;99.90
15455;DHT22;21057;51.024;7.540;2024-02-26T10:31:06;7.70;99.90
15455;DHT22;21057;51.024;7.540;2024-02-26T10:33:33;7.70;99.90
15455;DHT22;21057;51.024;7.540;2024-02-26T10:36:01;7.90;99.90
15455;DHT22;21057;51.024;7.540;2024-02-26T10:38:29;7.90;99.90
15455;DHT22;21057;51.024;7.540;2024-02-26T10:40:56;7.90;99.90
15455;DHT22;21057;51.024;7.540;2024-02-26T10:43:23;7.90;99.90
15455;DHT22;21057;51.024;7.540;2024-02-26T10:45:51;8.00;99.90
15455;DHT22;21057;51.024;7.540;2024-02-26T10:48:18;8.00;99.90
15455;DHT22;21057;51.024;7.540;2024-02-26T10:50:46;8.00;99.90
15455;DHT22;21057;51.024;7.540;2024-02-26T10:53:16;8.10;99.90
15455;DHT22;21057;51.024;7.540;2024-02-26T10:55:48;8.10;99.90
15455;DHT22;21057;51.024;7.540;2024-02-26T10:58:16;8.20;99.90
15455;DHT22;21057;51.024;7.540;2024-02-26T11:00:43;8.20;99.90
15455;DHT22;21057;51.024;7.540;2024-02-26T11:03:14;8.00;99.90
15455;DHT22;21057;51.024;7.540;2024-02-26T11:05:43;7.90;99.90
15455;DHT22;21057;51.024;7.540;2024-02-26T11:08:11;8.00;99.90
15455;DHT22;21057;51.024;7.540;2024-02-26T11:10:38;8.10;99.90
15455;DHT22;21057;51.024;7.540;2024-02-26T11:13:10;8.20;99.90
15455;DHT22;21057;51.024;7.540;2024-02-26T11:15:39;8.20;99.90
15455;DHT22;21057;51.024;7.540;2024-02-26T11:18:07;8.40;99.90
15455;DHT22;21057;51.024;7.540;2024-02-26T11:20:38;8.40;99.90
15455;DHT22;21057;51.024;7.540;2024-02-26T11:23:07;8.50;99.90
15455;DHT22;21057;51.024;7.540;2024-02-26T11:25:34;8.50;99.90
15455;DHT22;21057;51.024;7.540;2024-02-26T11:28:05;8.60;99.90
15455;DHT22;21057;51.024;7.540;2024-02-26T11:30:35;8.50;99.90
15455;DHT22;21057;51.024;7.540;2024-02-26T11:33:06;8.50;99.90
15455;DHT22;21057;51.024;7.540;2024-02-26T11:35:34;8.40;99.90
15455;DHT22;21057;51.024;7.540;2024-02-26T11:38:03;8.20;99.90
15455;DHT22;21057;51.024;7.540;2024-02-26T11:40:32;8.40;99.90
15455;DHT22;21057;51.024;7.540;2024-02-26T11:42:59;8.40;99.90
15455;DHT22;21057;51.024;7.540;2024-02-26T11:45:52;8.50;99.90
15455;DHT22;21057;51.024;7.540;2024-02-26T11:48:21;8.50;99.90
15455;DHT22;21057;51.024;7.540;2024-02-26T11:50:50;8.50;99.90
15455;DHT22;21057;51.024;7.540;2024-02-26T11:53:21;8.60;99.90
15455;DHT22;21057;51.024;7.540;2024-02-26T11:55:48;8.50;99.90
15455;DHT22;21057;51.024;7.540;2024-02-26T11:58:15;8.50;99.90
15455;DHT22;21057;51.024;7.540;2024-02-26T12:00:42;8.40;99.90
15455;DHT22;21057;51.024;7.540;2024-02-26T12:03:11;8.30;99.90
15455;DHT22;21057;51.024;7.540;2024-02-26T12:05:39;8.50;99.90
15455;DHT22;21057;51.024;7.540;2024-02-26T12:08:07;8.50;99.90
15455;DHT22;21057;51.024;7.540;2024-02-26T12:10:35;8.60;99.90
15455;DHT22;21057;51.024;7.540;2024-02-26T12:13:06;8.60;99.90
15455;DHT22;21057;51.024;7.540;2024-02-26T12:15:36;8.50;99.90
15455;DHT22;21057;51.024;7.540;2024-02-26T12:18:05;8.60;99.90
15455;DHT22;21057;51.024;7.540;2024-02-26T12:20:34;8.70;99.90
15455;DHT22;21057;51.024;7.540;2024-02-26T12:23:02;8.60;99.90
15455;DHT22;21057;51.024;7.540;2024-02-26T12:25:30;8.70;99.90
15455;DHT22;21057;51.024;7.540;2024-02-26T12:27:58;8.80;99.90
15455;DHT22;21057;51.024;7.540;2024-02-26T12:30:26;8.80;99.90
15455;DHT22;21057;51.024;7.540;2024-02-26T12:32:55;8.80;99.90
15455;DHT22;21057;51.024;7.540;2024-02-26T12:35:24;9.00;99.90
15455;DHT22;21057;51.024;7.540;2024-02-26T12:37:52;9.00;99.90
15455;DHT22;21057;51.024;7.540;2024-02-26T12:40:20;9.00;99.90
15455;DHT22;21057;51.024;7.540;2024-02-26T12:42:47;9.00;99.90
15455;DHT22;21057;51.024;7.540;2024-02-26T12:45:15;9.00;99.90
15455;DHT22;21057;51.024;7.540;2024-02-26T12:47:42;8.90;99.90
15455;DHT22;21057;51.024;7.540;2024-02-26T12:50:11;9.00;99.90
15455;DHT22;21057;51.024;7.540;2024-02-26T12:52:40;9.00;99.90
15455;DHT22;21057;51.024;7.540;2024-02-26T12:55:13;8.90;99.90
15455;DHT22;21057;51.024;7.540;2024-02-26T12:57:41;8.90;99.90
15455;DHT22;21057;51.024;7.540;2024-02-26T13:00:13;8.90;99.90
15455;DHT22;21057;51.024;7.540;2024-02-26T13:02:40;9.00;99.90
15455;DHT22;21057;51.024;7.540;2024-02-26T13:05:12;9.00;99.90
15455;DHT22;21057;51.024;7.540;2024-02-26T13:07:43;8.90;99.90
15455;DHT22;21057;51.024;7.540;2024-02-26T13:10:11;9.00;99.90
15455;DHT22;21057;51.024;7.540;2024-02-26T13:12:43;9.00;99.90
15455;DHT22;21057;51.024;7.540;2024-02-26T13:15:14;9.00;99.90
15455;DHT22;21057;51.024;7.540;2024-02-26T13:17:42;8.90;99.90
15455;DHT22;21057;51.024;7.540;2024-02-26T13:20:09;8.70;99.90
15455;DHT22;21057;51.024;7.540;2024-02-26T13:22:36;8.80;99.90
15455;DHT22;21057;51.024;7.540;2024-02-26T13:25:04;8.70;99.90
15455;DHT22;21057;51.024;7.540;2024-02-26T13:27:34;8.70;99.90
15455;DHT22;21057;51.024;7.540;2024-02-26T13:30:05;8.90;99.90
15455;DHT22;21057;51.024;7.540;2024-02-26T13:32:37;9.00;99.90
15455;DHT22;21057;51.024;7.540;2024-02-26T13:35:05;9.10;99.90
15455;DHT22;21057;51.024;7.540;2024-02-26T13:37:33;9.10;99.90
15455;DHT22;21057;51.024;7.540;2024-02-26T13:39:59;9.20;99.90
15455;DHT22;21057;51.024;7.540;2024-02-26T13:42:29;9.20;99.90
15455;DHT22;21057;51.024;7.540;2024-02-26T13:44:57;9.30;99.90
15455;DHT22;21057;51.024;7.540;2024-02-26T13:47:24;9.30;99.90
15455;DHT22;21057;51.024;7.540;2024-02-26T13:49:51;9.30;99.90
15455;DHT22;21057;51.024;7.540;2024-02-26T13:52:18;9.50;99.90
15455;DHT22;21057;51.024;7.540;2024-02-26T13:54:45;9.40;99.90
15455;DHT22;21057;51.024;7.540;2024-02-26T13:57:13;9.50;99.90
15455;DHT22;21057;51.024;7.540;2024-02-26T13:59:39;9.40;99.90
15455;DHT22;21057;51.024;7.540;2024-02-26T14:02:09;9.50;99.90
15455;DHT22;21057;51.024;7.540;2024-02-26T14:04:36;9.50;99.90
15455;DHT22;21057;51.024;7.540;2024-02-26T14:07:03;9.60;99.90
15455;DHT22;21057;51.024;7.540;2024-02-26T14:09:30;9.40;99.90
15455;DHT22;21057;51.024;7.540;2024-02-26T14:11:57;9.40;99.90
15455;DHT22;21057;51.024;7.540;2024-02-26T14:14:24;9.60;99.90
15455;DHT22;21057;51.024;7.540;2024-02-26T14:16:51;9.60;99.90
15455;DHT22;21057;51.024;7.540;2024-02-26T14:19:20;9.60;99.90
15455;DHT22;21057;51.024;7.540;2024-02-26T14:21:46;9.60;99.90
15455;DHT22;21057;51.024;7.540;2024-02-26T14:24:13;9.70;99.90
15455;DHT22;21057;51.024;7.540;2024-02-26T14:26:41;9.50;99.90
15455;DHT22;21057;51.024;7.540;2024-02-26T14:29:08;9.50;99.90
15455;DHT22;21057;51.024;7.540;2024-02-26T14:31:35;9.50;99.90
15455;DHT22;21057;51.024;7.540;2024-02-26T14:34:02;9.50;99.90
15455;DHT22;21057;51.024;7.540;2024-02-26T14:36:30;9.60;99.90
15455;DHT22;21057;51.024;7.540;2024-02-26T14:38:57;9.50;99.90
15455;DHT22;21057;51.024;7.540;2024-02-26T14:41:24;9.30;99.90
15455;DHT22;21057;51.024;7.540;2024-02-26T14:43:50;9.10;99.90
15455;DHT22;21057;51.024;7.540;2024-02-26T14:46:17;9.10;99.90
15455;DHT22;21057;51.024;7.540;2024-02-26T14:48:44;9.20;99.90
15455;DHT22;21057;51.024;7.540;2024-02-26T14:51:11;9.10;99.90
15455;DHT22;21057;51.024;7.540;2024-02-26T14:53:39;9.20;99.90
15455;DHT22;21057;51.024;7.540;2024-02-26T14:56:06;9.00;99.90
15455;DHT22;21057;51.024;7.540;2024-02-26T14:58:34;9.00;99.90
15455;DHT22;21057;51.024;7.540;2024-02-26T15:01:03;9.20;99.90
15455;DHT22;21057;51.024;7.540;2024-02-26T15:03:30;9.10;99.90
15455;DHT22;21057;51.024;7.540;2024-02-26T15:05:57;9.10;99.90
15455;DHT22;21057;51.024;7.540;2024-02-26T15:08:23;9.10;99.90
15455;DHT22;21057;51.024;7.540;2024-02-26T15:10:52;9.20;99.90
15455;DHT22;21057;51.024;7.540;2024-02-26T15:13:18;9.20;99.90
15455;DHT22;21057;51.024;7.540;2024-02-26T15:15:45;9.20;99.90
15455;DHT22;21057;51.024;7.540;2024-02-26T15:18:12;9.20;99.90
15455;DHT22;21057;51.024;7.540;2024-02-26T15:20:41;9.20;99.90
15455;DHT22;21057;51.024;7.540;2024-02-26T15:23:08;9.20;99.90
15455;DHT22;21057;51.024;7.540;2024-02-26T15:25:35;9.20;99.90
15455;DHT22;21057;51.024;7.540;2024-02-26T15:28:04;9.20;99.90
15455;DHT22;21057;51.024;7.540;2024-02-26T15:30:32;9.20;99.90
15455;DHT22;21057;51.024;7.540;2024-02-26T15:32:59;9.30;99.90
15455;DHT22;21057;51.024;7.540;2024-02-26T15:35:26;9.30;99.90
15455;DHT22;21057;51.024;7.540;2024-02-26T15:37:53;9.30;99.90
15455;DHT22;21057;51.024;7.540;2024-02-26T15:40:20;9.20;99.90
15455;DHT22;21057;51.024;7.540;2024-02-26T15:42:47;9.40;99.90
15455;DHT22;21057;51.024;7.540;2024-02-26T15:45:16;9.40;99.90
15455;DHT22;21057;51.024;7.540;2024-02-26T15:47:43;9.30;99.90